sensor_id;sensor_type;location;lat;lon;timestamp;temperature;humidity
54431;DHT22;40342;52.998;5.862;2022-09-16T00:00:51;12.20;99.90
54431;DHT22;40342;52.998;5.862;2022-09-16T00:03:17;12.20;99.90
54431;DHT22;40342;52.998;5.862;2022-09-16T00:05:48;12.20;99.90
54431;DHT22;40342;52.998;5.862;2022-09-16T00:08:15;12.30;99.90
54431;DHT22;40342;52.998;5.862;2022-09-16T00:10:41;12.30;99.90
54431;DHT22;40342;52.998;5.862;2022-09-16T00:13:11;12.20;99.90
54431;DHT22;40342;52.998;5.862;2022-09-16T00:15:41;12.30;99.90
54431;DHT22;40342;52.998;5.862;2022-09-16T00:18:07;12.20;99.90
54431;DHT22;40342;52.998;5.862;2022-09-16T00:20:32;12.20;99.90
54431;DHT22;40342;52.998;5.862;2022-09-16T00:22:58;12.20;99.90
54431;DHT22;40342;52.998;5.862;2022-09-16T00:25:24;12.20;99.90
54431;DHT22;40342;52.998;5.862;2022-09-16T00:27:49;12.10;99.90
54431;DHT22;40342;52.998;5.862;2022-09-16T00:30:15;12.10;99.90
54431;DHT22;40342;52.998;5.862;2022-09-16T00:32:41;12.10;99.90
54431;DHT22;40342;52.998;5.862;2022-09-16T00:35:06;12.00;99.90
54431;DHT22;40342;52.998;5.862;2022-09-16T00:37:33;12.00;99.90
54431;DHT22;40342;52.998;5.862;2022-09-16T00:39:59;11.90;99.90
54431;DHT22;40342;52.998;5.862;2022-09-16T00:42:24;12.00;99.90
54431;DHT22;40342;52.998;5.862;2022-09-16T00:44:59;12.00;99.90
54431;DHT22;40342;52.998;5.862;2022-09-16T00:47:52;12.00;99.90
54431;DHT22;40342;52.998;5.862;2022-09-16T00:50:26;12.00;99.90
54431;DHT22;40342;52.998;5.862;2022-09-16T00:52:55;12.10;99.90
54431;DHT22;40342;52.998;5.862;2022-09-16T00:55:27;12.00;99.90
54431;DHT22;40342;52.998;5.862;2022-09-16T00:57:56;12.00;99.90
54431;DHT22;40342;52.998;5.862;2022-09-16T01:00:25;12.00;99.90
54431;DHT22;40342;52.998;5.862;2022-09-16T01:02:51;12.00;99.90
54431;DHT22;40342;52.998;5.862;2022-09-16T01:05:20;11.90;99.90
54431;DHT22;40342;52.998;5.862;2022-09-16T01:07:48;11.90;99.90
54431;DHT22;40342;52.998;5.862;2022-09-16T01:10:18;11.90;99.90
54431;DHT22;40342;52.998;5.862;2022-09-16T01:12:48;11.80;99.90
54431;DHT22;40342;52.998;5.862;2022-09-16T01:15:15;11.80;99.90
54431;DHT22;40342;52.998;5.862;2022-09-16T01:36:48;11.60;99.90
54431;DHT22;40342;52.998;5.862;2022-09-16T01:39:45;11.60;99.90
54431;DHT22;40342;52.998;5.862;2022-09-16T01:42:15;11.60;99.90
54431;DHT22;40342;52.998;5.862;2022-09-16T01:45:02;11.50;99.90
54431;DHT22;40342;52.998;5.862;2022-09-16T01:47:57;11.50;99.90
54431;DHT22;40342;52.998;5.862;2022-09-16T01:50:38;11.40;99.90
54431;DHT22;40342;52.998;5.862;2022-09-16T01:53:10;11.40;99.90
54431;DHT22;40342;52.998;5.862;2022-09-16T01:56:02;11.40;99.90
54431;DHT22;40342;52.998;5.862;2022-09-16T01:58:26;11.30;99.90
54431;DHT22;40342;52.998;5.862;2022-09-16T02:01:00;11.30;99.90
54431;DHT22;40342;52.998;5.862;2022-09-16T02:03:31;11.30;99.90
54431;DHT22;40342;52.998;5.862;2022-09-16T02:06:02;11.20;99.90
54431;DHT22;40342;52.998;5.862;2022-09-16T02:08:34;11.30;99.90
54431;DHT22;40342;52.998;5.862;2022-09-16T02:11:04;11.20;99.90
54431;DHT22;40342;52.998;5.862;2022-09-16T02:13:40;11.20;99.90
54431;DHT22;40342;52.998;5.862;2022-09-16T02:16:25;11.20;99.90
54431;DHT22;40342;52.998;5.862;2022-09-16T02:18:55;11.20;99.90
54431;DHT22;40342;52.998;5.862;2022-09-16T02:21:24;11.20;99.90
54431;DHT22;40342;52.998;5.862;2022-09-16T02:23:55;11.20;99.90
54431;DHT22;40342;52.998;5.862;2022-09-16T02:26:27;11.20;99.90
54431;DHT22;40342;52.998;5.862;2022-09-16T02:28:54;11.20;99.90
54431;DHT22;40342;52.998;5.862;2022-09-16T02:31:29;11.20;99.90
54431;DHT22;40342;52.998;5.862;2022-09-16T02:34:00;11.20;99.90
54431;DHT22;40342;52.998;5.862;2022-09-16T02:36:28;11.20;99.90
54431;DHT22;40342;52.998;5.862;2022-09-16T02:38:59;11.20;99.90
54431;DHT22;40342;52.998;5.862;2022-09-16T02:41:28;11.20;99.90
54431;DHT22;40342;52.998;5.862;2022-09-16T02:43:54;11.10;99.90
54431;DHT22;40342;52.998;5.862;2022-09-16T02:46:29;11.10;99.90
54431;DHT22;40342;52.998;5.862;2022-09-16T02:49:33;11.10;99.90
54431;DHT22;40342;52.998;5.862;2022-09-16T02:52:24;11.10;99.90
54431;DHT22;40342;52.998;5.862;2022-09-16T02:57:51;11.10;99.90
54431;DHT22;40342;52.998;5.862;2022-09-16T03:00:17;11.10;99.90
54431;DHT22;40342;52.998;5.862;2022-09-16T03:02:42;11.00;99.90
54431;DHT22;40342;52.998;5.862;2022-09-16T03:05:08;11.00;99.90
54431;DHT22;40342;52.998;5.862;2022-09-16T03:07:35;11.00;99.90
54431;DHT22;40342;52.998;5.862;2022-09-16T03:10:01;11.00;99.90
54431;DHT22;40342;52.998;5.862;2022-09-16T03:15:32;11.00;99.90
54431;DHT22;40342;52.998;5.862;2022-09-16T03:18:26;11.00;99.90
54431;DHT22;40342;52.998;5.862;2022-09-16T03:21:03;11.00;99.90
54431;DHT22;40342;52.998;5.862;2022-09-16T03:29:26;11.00;99.90
54431;DHT22;40342;52.998;5.862;2022-09-16T03:32:02;11.00;99.90
54431;DHT22;40342;52.998;5.862;2022-09-16T03:34:36;11.00;99.90
54431;DHT22;40342;52.998;5.862;2022-09-16T03:37:06;11.00;99.90
54431;DHT22;40342;52.998;5.862;2022-09-16T03:39:33;10.90;99.90
54431;DHT22;40342;52.998;5.862;2022-09-16T03:42:01;10.90;99.90
54431;DHT22;40342;52.998;5.862;2022-09-16T03:44:34;10.80;99.90
54431;DHT22;40342;52.998;5.862;2022-09-16T03:47:01;10.80;99.90
54431;DHT22;40342;52.998;5.862;2022-09-16T03:49:27;10.70;99.90
54431;DHT22;40342;52.998;5.862;2022-09-16T03:51:54;10.70;99.90
54431;DHT22;40342;52.998;5.862;2022-09-16T03:54:20;10.60;99.90
54431;DHT22;40342;52.998;5.862;2022-09-16T03:56:46;10.60;99.90
54431;DHT22;40342;52.998;5.862;2022-09-16T03:59:11;10.50;99.90
54431;DHT22;40342;52.998;5.862;2022-09-16T04:01:37;10.50;99.90
54431;DHT22;40342;52.998;5.862;2022-09-16T04:04:02;10.50;99.90
54431;DHT22;40342;52.998;5.862;2022-09-16T04:06:28;10.40;99.90
54431;DHT22;40342;52.998;5.862;2022-09-16T04:08:54;10.40;99.90
54431;DHT22;40342;52.998;5.862;2022-09-16T04:11:21;10.40;99.90
54431;DHT22;40342;52.998;5.862;2022-09-16T04:13:47;10.30;99.90
54431;DHT22;40342;52.998;5.862;2022-09-16T04:16:18;10.30;99.90
54431;DHT22;40342;52.998;5.862;2022-09-16T04:18:45;10.30;99.90
54431;DHT22;40342;52.998;5.862;2022-09-16T04:21:11;10.20;99.90
54431;DHT22;40342;52.998;5.862;2022-09-16T04:23:36;10.20;99.90
54431;DHT22;40342;52.998;5.862;2022-09-16T04:26:02;10.20;99.90
54431;DHT22;40342;52.998;5.862;2022-09-16T04:28:28;10.20;99.90
54431;DHT22;40342;52.998;5.862;2022-09-16T04:30:59;10.10;99.90
54431;DHT22;40342;52.998;5.862;2022-09-16T04:33:30;10.10;99.90
54431;DHT22;40342;52.998;5.862;2022-09-16T04:38:33;10.00;99.90
54431;DHT22;40342;52.998;5.862;2022-09-16T04:41:17;10.00;99.90
54431;DHT22;40342;52.998;5.862;2022-09-16T04:43:43;10.00;99.90
54431;DHT22;40342;52.998;5.862;2022-09-16T04:46:09;9.90;99.90
54431;DHT22;40342;52.998;5.862;2022-09-16T04:48:35;9.80;99.90
54431;DHT22;40342;52.998;5.862;2022-09-16T04:51:06;9.70;99.90
54431;DHT22;40342;52.998;5.862;2022-09-16T04:53:33;9.70;99.90
54431;DHT22;40342;52.998;5.862;2022-09-16T04:56:09;9.60;99.90
54431;DHT22;40342;52.998;5.862;2022-09-16T04:58:39;9.60;99.90
54431;DHT22;40342;52.998;5.862;2022-09-16T05:01:13;9.60;99.90
54431;DHT22;40342;52.998;5.862;2022-09-16T05:03:45;9.60;99.90
54431;DHT22;40342;52.998;5.862;2022-09-16T05:06:16;9.50;99.90
54431;DHT22;40342;52.998;5.862;2022-09-16T05:08:41;9.40;99.90
54431;DHT22;40342;52.998;5.862;2022-09-16T05:11:12;9.40;99.90
54431;DHT22;40342;52.998;5.862;2022-09-16T05:13:38;9.40;99.90
54431;DHT22;40342;52.998;5.862;2022-09-16T05:16:06;9.40;99.90
54431;DHT22;40342;52.998;5.862;2022-09-16T05:18:33;9.40;99.90
54431;DHT22;40342;52.998;5.862;2022-09-16T05:21:00;9.40;99.90
54431;DHT22;40342;52.998;5.862;2022-09-16T05:23:26;9.30;99.90
54431;DHT22;40342;52.998;5.862;2022-09-16T05:25:53;9.30;99.90
54431;DHT22;40342;52.998;5.862;2022-09-16T05:28:19;9.30;99.90
54431;DHT22;40342;52.998;5.862;2022-09-16T05:30:45;9.30;99.90
54431;DHT22;40342;52.998;5.862;2022-09-16T05:33:10;9.30;99.90
54431;DHT22;40342;52.998;5.862;2022-09-16T05:35:36;9.30;99.90
54431;DHT22;40342;52.998;5.862;2022-09-16T05:38:02;9.30;99.90
54431;DHT22;40342;52.998;5.862;2022-09-16T05:40:27;9.30;99.90
54431;DHT22;40342;52.998;5.862;2022-09-16T05:42:53;9.40;99.90
54431;DHT22;40342;52.998;5.862;2022-09-16T05:45:18;9.50;99.90
54431;DHT22;40342;52.998;5.862;2022-09-16T05:47:48;10.10;99.90
54431;DHT22;40342;52.998;5.862;2022-09-16T05:50:14;9.90;99.90
54431;DHT22;40342;52.998;5.862;2022-09-16T05:52:39;9.90;99.90
54431;DHT22;40342;52.998;5.862;2022-09-16T05:55:05;10.10;99.90
54431;DHT22;40342;52.998;5.862;2022-09-16T05:57:31;10.20;99.90
54431;DHT22;40342;52.998;5.862;2022-09-16T05:59:57;10.30;99.90
54431;DHT22;40342;52.998;5.862;2022-09-16T06:02:25;10.40;99.90
54431;DHT22;40342;52.998;5.862;2022-09-16T06:04:50;10.40;99.90
54431;DHT22;40342;52.998;5.862;2022-09-16T06:07:17;10.50;99.90
54431;DHT22;40342;52.998;5.862;2022-09-16T06:09:43;10.60;99.90
54431;DHT22;40342;52.998;5.862;2022-09-16T06:12:08;10.70;99.90
54431;DHT22;40342;52.998;5.862;2022-09-16T06:14:34;10.80;99.90
54431;DHT22;40342;52.998;5.862;2022-09-16T06:17:00;10.90;99.90
54431;DHT22;40342;52.998;5.862;2022-09-16T06:19:26;11.50;99.90
54431;DHT22;40342;52.998;5.862;2022-09-16T06:21:51;11.10;99.90
54431;DHT22;40342;52.998;5.862;2022-09-16T06:24:19;11.40;99.90
54431;DHT22;40342;52.998;5.862;2022-09-16T06:26:45;11.30;99.90
54431;DHT22;40342;52.998;5.862;2022-09-16T06:29:12;11.30;99.90
54431;DHT22;40342;52.998;5.862;2022-09-16T06:31:38;11.30;99.90
54431;DHT22;40342;52.998;5.862;2022-09-16T06:34:05;11.40;99.90
54431;DHT22;40342;52.998;5.862;2022-09-16T06:36:36;11.40;99.90
54431;DHT22;40342;52.998;5.862;2022-09-16T06:39:02;11.40;99.90
54431;DHT22;40342;52.998;5.862;2022-09-16T06:41:30;11.40;99.90
54431;DHT22;40342;52.998;5.862;2022-09-16T06:43:56;11.50;99.90
54431;DHT22;40342;52.998;5.862;2022-09-16T06:46:26;11.50;99.90
54431;DHT22;40342;52.998;5.862;2022-09-16T06:48:54;11.60;99.90
54431;DHT22;40342;52.998;5.862;2022-09-16T06:51:25;11.60;99.90
54431;DHT22;40342;52.998;5.862;2022-09-16T06:53:57;11.60;99.90
54431;DHT22;40342;52.998;5.862;2022-09-16T06:56:23;11.70;99.90
54431;DHT22;40342;52.998;5.862;2022-09-16T06:58:50;11.70;99.90
54431;DHT22;40342;52.998;5.862;2022-09-16T07:01:22;11.70;99.90
54431;DHT22;40342;52.998;5.862;2022-09-16T07:03:50;11.80;99.90
54431;DHT22;40342;52.998;5.862;2022-09-16T07:06:17;11.80;99.90
54431;DHT22;40342;52.998;5.862;2022-09-16T07:08:43;11.90;99.90
54431;DHT22;40342;52.998;5.862;2022-09-16T07:11:11;11.90;99.90
54431;DHT22;40342;52.998;5.862;2022-09-16T07:13:38;12.00;99.90
54431;DHT22;40342;52.998;5.862;2022-09-16T07:16:09;12.10;99.90
54431;DHT22;40342;52.998;5.862;2022-09-16T07:18:35;12.10;99.90
54431;DHT22;40342;52.998;5.862;2022-09-16T07:21:02;12.20;99.90
54431;DHT22;40342;52.998;5.862;2022-09-16T07:23:33;12.20;99.90
54431;DHT22;40342;52.998;5.862;2022-09-16T07:26:08;12.30;99.90
54431;DHT22;40342;52.998;5.862;2022-09-16T07:28:34;12.30;99.90
54431;DHT22;40342;52.998;5.862;2022-09-16T07:31:01;12.40;99.90
54431;DHT22;40342;52.998;5.862;2022-09-16T07:33:29;12.40;99.90
54431;DHT22;40342;52.998;5.862;2022-09-16T07:35:58;12.50;99.90
54431;DHT22;40342;52.998;5.862;2022-09-16T07:38:24;12.60;99.90
54431;DHT22;40342;52.998;5.862;2022-09-16T07:40:49;12.60;99.90
54431;DHT22;40342;52.998;5.862;2022-09-16T07:43:15;12.60;99.90
54431;DHT22;40342;52.998;5.862;2022-09-16T07:45:40;12.70;99.90
54431;DHT22;40342;52.998;5.862;2022-09-16T07:48:06;12.80;99.90
54431;DHT22;40342;52.998;5.862;2022-09-16T07:50:32;12.80;99.90
54431;DHT22;40342;52.998;5.862;2022-09-16T07:52:57;12.90;99.90
54431;DHT22;40342;52.998;5.862;2022-09-16T07:55:23;12.90;99.90
54431;DHT22;40342;52.998;5.862;2022-09-16T07:57:48;13.00;99.90
54431;DHT22;40342;52.998;5.862;2022-09-16T08:00:14;13.00;99.90
54431;DHT22;40342;52.998;5.862;2022-09-16T08:02:41;13.10;99.90
54431;DHT22;40342;52.998;5.862;2022-09-16T08:05:07;13.10;99.90
54431;DHT22;40342;52.998;5.862;2022-09-16T08:07:33;13.10;99.90
54431;DHT22;40342;52.998;5.862;2022-09-16T08:09:59;13.10;99.90
54431;DHT22;40342;52.998;5.862;2022-09-16T08:12:25;13.10;99.90
54431;DHT22;40342;52.998;5.862;2022-09-16T08:14:51;13.10;99.90
54431;DHT22;40342;52.998;5.862;2022-09-16T08:17:16;13.00;99.90
54431;DHT22;40342;52.998;5.862;2022-09-16T08:19:42;12.90;99.90
54431;DHT22;40342;52.998;5.862;2022-09-16T08:22:07;13.10;99.90
54431;DHT22;40342;52.998;5.862;2022-09-16T08:24:33;13.10;99.90
54431;DHT22;40342;52.998;5.862;2022-09-16T08:26:59;13.10;99.90
54431;DHT22;40342;52.998;5.862;2022-09-16T08:29:24;13.10;99.90
54431;DHT22;40342;52.998;5.862;2022-09-16T08:31:50;13.20;99.90
54431;DHT22;40342;52.998;5.862;2022-09-16T08:34:16;13.20;99.90
54431;DHT22;40342;52.998;5.862;2022-09-16T08:36:42;13.20;99.90
54431;DHT22;40342;52.998;5.862;2022-09-16T08:39:08;13.30;99.90
54431;DHT22;40342;52.998;5.862;2022-09-16T08:50:03;13.50;99.90
54431;DHT22;40342;52.998;5.862;2022-09-16T08:52:34;13.50;99.90
54431;DHT22;40342;52.998;5.862;2022-09-16T08:55:36;13.60;99.90
54431;DHT22;40342;52.998;5.862;2022-09-16T08:58:12;13.70;99.90
54431;DHT22;40342;52.998;5.862;2022-09-16T09:00:39;13.80;99.90
54431;DHT22;40342;52.998;5.862;2022-09-16T09:06:03;13.90;99.90
54431;DHT22;40342;52.998;5.862;2022-09-16T09:08:52;14.00;99.90
54431;DHT22;40342;52.998;5.862;2022-09-16T09:11:32;14.00;99.90
54431;DHT22;40342;52.998;5.862;2022-09-16T09:14:34;13.90;99.90
54431;DHT22;40342;52.998;5.862;2022-09-16T09:20:27;14.10;99.90
54431;DHT22;40342;52.998;5.862;2022-09-16T09:23:06;14.20;99.90
54431;DHT22;40342;52.998;5.862;2022-09-16T09:25:43;14.30;99.90
54431;DHT22;40342;52.998;5.862;2022-09-16T09:31:16;14.60;99.90
54431;DHT22;40342;52.998;5.862;2022-09-16T09:34:22;14.70;99.90
54431;DHT22;40342;52.998;5.862;2022-09-16T09:37:14;14.80;99.90
54431;DHT22;40342;52.998;5.862;2022-09-16T09:42:50;15.00;99.90
54431;DHT22;40342;52.998;5.862;2022-09-16T09:45:28;15.00;99.90
54431;DHT22;40342;52.998;5.862;2022-09-16T09:48:16;15.10;99.90
54431;DHT22;40342;52.998;5.862;2022-09-16T09:50:47;15.30;99.90
54431;DHT22;40342;52.998;5.862;2022-09-16T09:53:21;15.40;99.90
54431;DHT22;40342;52.998;5.862;2022-09-16T09:55:53;15.60;99.90
54431;DHT22;40342;52.998;5.862;2022-09-16T09:58:38;15.70;99.90
54431;DHT22;40342;52.998;5.862;2022-09-16T10:01:05;15.90;99.90
54431;DHT22;40342;52.998;5.862;2022-09-16T10:03:31;16.00;99.90
54431;DHT22;40342;52.998;5.862;2022-09-16T10:05:57;16.20;99.90
54431;DHT22;40342;52.998;5.862;2022-09-16T10:10:55;16.30;99.90
54431;DHT22;40342;52.998;5.862;2022-09-16T10:13:22;16.30;99.90
54431;DHT22;40342;52.998;5.862;2022-09-16T10:15:49;16.30;99.90
54431;DHT22;40342;52.998;5.862;2022-09-16T10:18:26;16.40;99.90
54431;DHT22;40342;52.998;5.862;2022-09-16T10:23:25;16.60;99.40
54431;DHT22;40342;52.998;5.862;2022-09-16T10:29:03;16.80;98.60
54431;DHT22;40342;52.998;5.862;2022-09-16T10:31:37;16.80;98.40
54431;DHT22;40342;52.998;5.862;2022-09-16T10:36:40;17.00;98.50
54431;DHT22;40342;52.998;5.862;2022-09-16T10:39:16;17.10;98.60
54431;DHT22;40342;52.998;5.862;2022-09-16T10:41:46;17.00;98.40
54431;DHT22;40342;52.998;5.862;2022-09-16T10:44:14;17.10;98.50
54431;DHT22;40342;52.998;5.862;2022-09-16T10:47:17;17.20;98.00
54431;DHT22;40342;52.998;5.862;2022-09-16T10:49:53;17.20;97.60
54431;DHT22;40342;52.998;5.862;2022-09-16T10:52:25;17.10;97.40
54431;DHT22;40342;52.998;5.862;2022-09-16T10:54:52;17.50;97.10
54431;DHT22;40342;52.998;5.862;2022-09-16T11:07:39;17.00;97.50
54431;DHT22;40342;52.998;5.862;2022-09-16T11:10:10;17.00;96.60
54431;DHT22;40342;52.998;5.862;2022-09-16T11:20:49;17.30;97.30
54431;DHT22;40342;52.998;5.862;2022-09-16T11:23:41;17.40;97.30
54431;DHT22;40342;52.998;5.862;2022-09-16T11:31:39;17.70;96.90
54431;DHT22;40342;52.998;5.862;2022-09-16T11:40:07;17.60;97.30
54431;DHT22;40342;52.998;5.862;2022-09-16T11:42:41;17.30;97.40
54431;DHT22;40342;52.998;5.862;2022-09-16T11:47:57;17.20;98.60
54431;DHT22;40342;52.998;5.862;2022-09-16T11:50:34;17.30;97.70
54431;DHT22;40342;52.998;5.862;2022-09-16T11:53:18;17.50;96.90
54431;DHT22;40342;52.998;5.862;2022-09-16T11:56:00;17.50;96.50
54431;DHT22;40342;52.998;5.862;2022-09-16T11:58:44;17.50;96.40
54431;DHT22;40342;52.998;5.862;2022-09-16T12:01:36;17.50;96.10
54431;DHT22;40342;52.998;5.862;2022-09-16T12:04:05;17.50;96.10
54431;DHT22;40342;52.998;5.862;2022-09-16T12:06:45;17.60;95.90
54431;DHT22;40342;52.998;5.862;2022-09-16T12:09:21;17.70;95.60
54431;DHT22;40342;52.998;5.862;2022-09-16T12:11:56;17.80;95.00
54431;DHT22;40342;52.998;5.862;2022-09-16T12:14:54;17.80;95.60
54431;DHT22;40342;52.998;5.862;2022-09-16T12:17:27;18.00;94.70
54431;DHT22;40342;52.998;5.862;2022-09-16T12:20:04;17.60;94.90
54431;DHT22;40342;52.998;5.862;2022-09-16T12:22:45;17.50;96.20
54431;DHT22;40342;52.998;5.862;2022-09-16T12:25:20;17.40;97.00
54431;DHT22;40342;52.998;5.862;2022-09-16T12:28:14;18.00;97.20
54431;DHT22;40342;52.998;5.862;2022-09-16T12:30:41;17.60;97.20
54431;DHT22;40342;52.998;5.862;2022-09-16T12:33:26;17.80;95.80
54431;DHT22;40342;52.998;5.862;2022-09-16T12:36:01;17.80;95.40
54431;DHT22;40342;52.998;5.862;2022-09-16T12:38:28;17.90;95.10
54431;DHT22;40342;52.998;5.862;2022-09-16T12:41:21;18.00;94.30
54431;DHT22;40342;52.998;5.862;2022-09-16T12:49:30;17.90;94.50
54431;DHT22;40342;52.998;5.862;2022-09-16T12:52:22;18.00;94.50
54431;DHT22;40342;52.998;5.862;2022-09-16T12:57:40;18.20;94.40
54431;DHT22;40342;52.998;5.862;2022-09-16T13:02:55;18.10;95.00
54431;DHT22;40342;52.998;5.862;2022-09-16T13:05:29;18.10;94.40
54431;DHT22;40342;52.998;5.862;2022-09-16T13:07:59;18.20;95.10
54431;DHT22;40342;52.998;5.862;2022-09-16T13:10:38;18.60;94.70
54431;DHT22;40342;52.998;5.862;2022-09-16T13:13:05;18.20;94.70
54431;DHT22;40342;52.998;5.862;2022-09-16T13:15:33;18.10;94.50
54431;DHT22;40342;52.998;5.862;2022-09-16T13:21:01;18.50;94.80
54431;DHT22;40342;52.998;5.862;2022-09-16T13:23:33;17.80;94.60
54431;DHT22;40342;52.998;5.862;2022-09-16T13:26:02;17.60;94.80
54431;DHT22;40342;52.998;5.862;2022-09-16T13:28:36;17.60;94.60
54431;DHT22;40342;52.998;5.862;2022-09-16T13:38:51;17.50;95.50
54431;DHT22;40342;52.998;5.862;2022-09-16T13:44:00;17.60;96.30
54431;DHT22;40342;52.998;5.862;2022-09-16T13:46:35;17.60;95.70
54431;DHT22;40342;52.998;5.862;2022-09-16T13:49:09;17.70;95.30
54431;DHT22;40342;52.998;5.862;2022-09-16T13:51:40;17.60;94.70
54431;DHT22;40342;52.998;5.862;2022-09-16T13:57:12;17.50;95.00
54431;DHT22;40342;52.998;5.862;2022-09-16T13:59:55;17.40;94.70
54431;DHT22;40342;52.998;5.862;2022-09-16T14:02:39;17.30;94.30
54431;DHT22;40342;52.998;5.862;2022-09-16T14:05:31;17.10;94.40
54431;DHT22;40342;52.998;5.862;2022-09-16T14:13:50;17.00;95.10
54431;DHT22;40342;52.998;5.862;2022-09-16T14:16:25;17.10;95.30
54431;DHT22;40342;52.998;5.862;2022-09-16T14:19:05;17.30;94.90
54431;DHT22;40342;52.998;5.862;2022-09-16T14:21:33;17.40;94.70
54431;DHT22;40342;52.998;5.862;2022-09-16T14:24:16;17.60;94.50
54431;DHT22;40342;52.998;5.862;2022-09-16T14:26:49;17.90;94.20
54431;DHT22;40342;52.998;5.862;2022-09-16T14:29:15;17.80;94.20
54431;DHT22;40342;52.998;5.862;2022-09-16T14:31:41;17.80;93.70
54431;DHT22;40342;52.998;5.862;2022-09-16T14:34:14;17.80;93.50
54431;DHT22;40342;52.998;5.862;2022-09-16T14:36:41;17.70;93.80
54431;DHT22;40342;52.998;5.862;2022-09-16T14:39:14;17.60;94.40
54431;DHT22;40342;52.998;5.862;2022-09-16T14:41:51;17.50;94.10
54431;DHT22;40342;52.998;5.862;2022-09-16T14:46:57;17.40;93.60
54431;DHT22;40342;52.998;5.862;2022-09-16T14:49:24;17.30;93.60
54431;DHT22;40342;52.998;5.862;2022-09-16T14:51:55;17.20;94.10
54431;DHT22;40342;52.998;5.862;2022-09-16T14:54:23;17.20;95.00
54431;DHT22;40342;52.998;5.862;2022-09-16T14:56:59;17.20;95.40
54431;DHT22;40342;52.998;5.862;2022-09-16T14:59:30;17.10;95.30
54431;DHT22;40342;52.998;5.862;2022-09-16T15:02:03;16.90;95.60
54431;DHT22;40342;52.998;5.862;2022-09-16T15:04:33;16.90;96.60
54431;DHT22;40342;52.998;5.862;2022-09-16T15:07:07;16.70;97.80
54431;DHT22;40342;52.998;5.862;2022-09-16T15:12:03;16.30;99.10
54431;DHT22;40342;52.998;5.862;2022-09-16T15:14:29;16.00;99.60
54431;DHT22;40342;52.998;5.862;2022-09-16T15:17:02;15.80;99.90
54431;DHT22;40342;52.998;5.862;2022-09-16T15:19:32;15.80;99.90
54431;DHT22;40342;52.998;5.862;2022-09-16T15:21:58;15.50;99.90
54431;DHT22;40342;52.998;5.862;2022-09-16T15:24:30;15.40;99.90
54431;DHT22;40342;52.998;5.862;2022-09-16T15:26:58;15.30;99.90
54431;DHT22;40342;52.998;5.862;2022-09-16T15:29:28;15.20;99.90
54431;DHT22;40342;52.998;5.862;2022-09-16T15:32:06;15.10;99.90
54431;DHT22;40342;52.998;5.862;2022-09-16T15:34:38;15.00;99.90
54431;DHT22;40342;52.998;5.862;2022-09-16T15:37:04;14.90;99.90
54431;DHT22;40342;52.998;5.862;2022-09-16T15:42:16;14.90;99.90
54431;DHT22;40342;52.998;5.862;2022-09-16T15:47:27;14.90;99.90
54431;DHT22;40342;52.998;5.862;2022-09-16T15:50:11;14.90;99.90
54431;DHT22;40342;52.998;5.862;2022-09-16T15:53:07;14.80;99.90
54431;DHT22;40342;52.998;5.862;2022-09-16T15:55:37;14.70;99.90
54431;DHT22;40342;52.998;5.862;2022-09-16T15:58:16;14.50;99.90
54431;DHT22;40342;52.998;5.862;2022-09-16T16:00:59;14.40;99.90
54431;DHT22;40342;52.998;5.862;2022-09-16T16:03:34;14.30;99.90
54431;DHT22;40342;52.998;5.862;2022-09-16T16:06:00;14.10;99.90
54431;DHT22;40342;52.998;5.862;2022-09-16T16:08:37;14.00;99.90
54431;DHT22;40342;52.998;5.862;2022-09-16T16:11:09;14.00;99.90
54431;DHT22;40342;52.998;5.862;2022-09-16T16:13:35;13.90;99.90
54431;DHT22;40342;52.998;5.862;2022-09-16T16:16:01;13.90;99.90
54431;DHT22;40342;52.998;5.862;2022-09-16T16:18:29;13.80;99.90
54431;DHT22;40342;52.998;5.862;2022-09-16T16:20:57;13.70;99.90
54431;DHT22;40342;52.998;5.862;2022-09-16T16:23:23;13.70;99.90
54431;DHT22;40342;52.998;5.862;2022-09-16T16:25:48;13.60;99.90
54431;DHT22;40342;52.998;5.862;2022-09-16T16:28:14;13.50;99.90
54431;DHT22;40342;52.998;5.862;2022-09-16T16:30:40;13.40;99.90
54431;DHT22;40342;52.998;5.862;2022-09-16T16:33:06;13.40;99.90
54431;DHT22;40342;52.998;5.862;2022-09-16T16:35:32;13.30;99.90
54431;DHT22;40342;52.998;5.862;2022-09-16T16:37:57;13.30;99.90
54431;DHT22;40342;52.998;5.862;2022-09-16T16:40:23;13.30;99.90
54431;DHT22;40342;52.998;5.862;2022-09-16T16:42:49;13.20;99.90
54431;DHT22;40342;52.998;5.862;2022-09-16T16:45:15;13.30;99.90
54431;DHT22;40342;52.998;5.862;2022-09-16T16:47:41;13.20;99.90
54431;DHT22;40342;52.998;5.862;2022-09-16T16:50:09;13.30;99.90
54431;DHT22;40342;52.998;5.862;2022-09-16T16:52:35;13.30;99.90
54431;DHT22;40342;52.998;5.862;2022-09-16T16:55:00;13.30;99.90
54431;DHT22;40342;52.998;5.862;2022-09-16T16:57:26;13.30;99.90
54431;DHT22;40342;52.998;5.862;2022-09-16T16:59:52;13.30;99.90
54431;DHT22;40342;52.998;5.862;2022-09-16T17:02:17;13.30;99.90
54431;DHT22;40342;52.998;5.862;2022-09-16T17:04:43;13.30;99.90
54431;DHT22;40342;52.998;5.862;2022-09-16T17:07:08;13.30;99.90
54431;DHT22;40342;52.998;5.862;2022-09-16T17:09:35;13.30;99.90
54431;DHT22;40342;52.998;5.862;2022-09-16T17:12:01;13.30;99.90
54431;DHT22;40342;52.998;5.862;2022-09-16T17:14:29;13.30;99.90
54431;DHT22;40342;52.998;5.862;2022-09-16T17:16:56;13.30;99.90
54431;DHT22;40342;52.998;5.862;2022-09-16T17:19:25;13.30;99.90
54431;DHT22;40342;52.998;5.862;2022-09-16T17:21:51;13.30;99.90
54431;DHT22;40342;52.998;5.862;2022-09-16T17:24:18;13.40;99.90
54431;DHT22;40342;52.998;5.862;2022-09-16T17:26:44;13.30;99.90
54431;DHT22;40342;52.998;5.862;2022-09-16T17:29:10;13.30;99.90
54431;DHT22;40342;52.998;5.862;2022-09-16T17:31:36;13.40;99.90
54431;DHT22;40342;52.998;5.862;2022-09-16T17:34:13;13.40;99.90
54431;DHT22;40342;52.998;5.862;2022-09-16T17:36:41;13.30;99.90
54431;DHT22;40342;52.998;5.862;2022-09-16T17:39:15;13.40;99.90
54431;DHT22;40342;52.998;5.862;2022-09-16T17:41:43;13.40;99.90
54431;DHT22;40342;52.998;5.862;2022-09-16T17:44:11;13.30;99.90
54431;DHT22;40342;52.998;5.862;2022-09-16T17:46:37;13.30;99.90
54431;DHT22;40342;52.998;5.862;2022-09-16T17:49:05;13.20;99.90
54431;DHT22;40342;52.998;5.862;2022-09-16T17:51:33;13.20;99.90
54431;DHT22;40342;52.998;5.862;2022-09-16T17:53:58;13.10;99.90
54431;DHT22;40342;52.998;5.862;2022-09-16T17:56:24;13.10;99.90
54431;DHT22;40342;52.998;5.862;2022-09-16T17:58:51;13.10;99.90
54431;DHT22;40342;52.998;5.862;2022-09-16T18:01:20;13.00;99.90
54431;DHT22;40342;52.998;5.862;2022-09-16T18:03:47;13.00;99.90
54431;DHT22;40342;52.998;5.862;2022-09-16T18:06:26;12.90;99.90
54431;DHT22;40342;52.998;5.862;2022-09-16T18:08:53;12.90;99.90
54431;DHT22;40342;52.998;5.862;2022-09-16T18:11:19;12.90;99.90
54431;DHT22;40342;52.998;5.862;2022-09-16T18:13:46;12.90;99.90
54431;DHT22;40342;52.998;5.862;2022-09-16T18:16:18;12.90;99.90